Amistad — WCZ9672 — position and weather

sailwx.info

Track history (hours):
 
Tides and Currents Weather Stations Pressure Air Temp Water Temp Dewpoint Dewpoint Depression Visibility Wind Speed Wind Dir Waves Ship Positions

Amistad (United States)

Ship's website: http://www.amistadvoyages.org/

Owner: AMISTAD AMERICA, New Haven, CT. More information available from US FCC via Universal Licensing System and Coast Guard Vessel Documentation Center.

Last reported at 2019-Apr-13 16:17 UTC. Time now 2019-Apr-26 04:18 UTC.
Position N 41°13' W 072°42'.
Warning: this ship's position is 12 days out of date.

Length 39 m; draft 3.4 m.

Type: Sailing vessel. MMSI: 369547000.

Date/timePositionNaut miles runAvg speedWind from/ knotsBaromVisibWave heightAir tempDewpointWater temp
2019-Apr-13 16:17N 41°13' W 072°42'2 7.4
2019-Apr-13 16:00N 41°14' W 072°39'4 7.2
2019-Apr-13 15:30N 41°13' W 072°34'4 7.0
2019-Apr-13 15:00N 41°14' W 072°30'3 6.8
2019-Apr-13 14:30N 41°15' W 072°25'3 6.2
2019-Apr-13 14:00N 41°15' W 072°21'3 5.3
2019-Apr-13 13:30N 41°14' W 072°18'3 5.3
2019-Apr-13 13:00N 41°15' W 072°14'2 4.9
2019-Apr-13 12:30N 41°15' W 072°11'2 4.5
2019-Apr-13 12:00N 41°15' W 072°08'3 5.3
2019-Apr-13 11:30N 41°17' W 072°06'3 6.0
2019-Apr-13 11:00N 41°20' W 072°05'1 2.9
2019-Apr-13 10:29N 41°21' W 072°06'0 0.0
2019-Apr-13 09:59N 41°21' W 072°06'0 0.0
2019-Apr-12 23:54N 41°21' W 072°06'0 0.0
2019-Apr-12 23:30N 41°21' W 072°06'0 0.0
2019-Apr-12 23:00N 41°21' W 072°06'0 0.0
2019-Apr-12 22:30N 41°21' W 072°06'0 0.0
2019-Apr-12 22:00N 41°21' W 072°06'  
2019-Apr-05 00:36N 41°22' W 072°06'0 0.0
2019-Apr-05 00:30N 41°22' W 072°06'0 0.0
2019-Apr-05 00:00N 41°22' W 072°06'0 0.0
2019-Apr-04 23:30N 41°22' W 072°06'0 0.0
2019-Apr-04 23:00N 41°22' W 072°06'0 0.0
2019-Apr-04 22:30N 41°22' W 072°06'0 0.0
2019-Apr-04 22:00N 41°22' W 072°06'0 0.0
2019-Apr-04 21:30N 41°22' W 072°06'0 0.0
2019-Apr-04 21:00N 41°22' W 072°06'0 0.0
2019-Apr-04 20:30N 41°22' W 072°06'0 0.0
2019-Apr-04 20:00N 41°22' W 072°06'0 0.0
2019-Apr-04 19:30N 41°22' W 072°06'0 0.0
2019-Apr-04 19:00N 41°22' W 072°06'0 0.0
2019-Apr-04 18:30N 41°22' W 072°06'0 0.0
2019-Apr-04 18:00N 41°22' W 072°06'0 0.0
2019-Apr-04 17:30N 41°22' W 072°06'0 0.0
2019-Apr-04 17:00N 41°22' W 072°06'0 0.0
2019-Apr-04 16:30N 41°22' W 072°06'0 0.0
2019-Apr-04 16:00N 41°22' W 072°06'1 2.2
2019-Apr-04 15:30N 41°21' W 072°05'3 5.8
2019-Apr-04 15:00N 41°18' W 072°05'2 4.6
2019-Apr-04 14:30N 41°18' W 072°02'2 4.7
2019-Apr-04 14:00N 41°19' W 071°59'2 3.7
2019-Apr-04 13:30N 41°21' W 071°58'1 1.7
2019-Apr-04 12:49N 41°22' W 071°58'0 0.0
2019-Apr-04 12:28N 41°22' W 071°58'0 0.0
2019-Apr-04 11:58N 41°22' W 071°58'0 0.0
2019-Apr-04 11:16N 41°22' W 071°58'0 0.0
2019-Apr-04 10:58N 41°22' W 071°58'0 0.0
2019-Apr-04 10:28N 41°22' W 071°58'0 0.0
2019-Apr-04 09:58N 41°22' W 071°58'0 0.0
2019-Apr-04 09:22N 41°22' W 071°58'0 0.0
2019-Apr-04 08:58N 41°22' W 071°58'0 0.0
2019-Apr-04 08:28N 41°22' W 071°58'0 0.0
2019-Apr-04 07:58N 41°22' W 071°58'0 0.0
2019-Apr-04 07:28N 41°22' W 071°58'0 0.0
2019-Apr-04 06:58N 41°22' W 071°58'0 0.0
2019-Apr-04 06:28N 41°22' W 071°58'0 0.0
2019-Apr-04 05:58N 41°22' W 071°58'0 0.0
2019-Apr-04 05:28N 41°22' W 071°58'0 0.0
2019-Apr-04 04:58N 41°22' W 071°58'0 0.0
2019-Apr-04 04:25N 41°22' W 071°58'0 0.0
2019-Apr-04 03:58N 41°22' W 071°58'0 0.0
2019-Apr-04 03:25N 41°22' W 071°58'0 0.0
2019-Apr-04 02:58N 41°22' W 071°58'0 0.0
2019-Apr-04 02:28N 41°22' W 071°58'0 0.0
2019-Apr-04 01:58N 41°22' W 071°58'0 0.0
2019-Apr-04 01:28N 41°22' W 071°58'0 0.0
2019-Apr-04 00:55N 41°22' W 071°58'0 0.0
2019-Apr-04 00:28N 41°22' W 071°58'0 0.0
2019-Apr-03 23:58N 41°22' W 071°58'0 0.0
2019-Apr-03 23:28N 41°22' W 071°58'0 0.0
2019-Apr-03 22:58N 41°22' W 071°58'0 0.0
2019-Apr-03 22:25N 41°22' W 071°58'0 0.0
2019-Apr-03 21:58N 41°22' W 071°58'0 0.0
2019-Apr-03 21:28N 41°22' W 071°58'0 0.0
2019-Apr-03 20:55N 41°22' W 071°58'0 0.0
2019-Apr-03 20:28N 41°22' W 071°58'0 0.0
2019-Apr-03 19:25N 41°22' W 071°58'0 0.0
2019-Apr-03 18:58N 41°22' W 071°58'0 0.0
2019-Apr-03 18:16N 41°22' W 071°58'  
Track history (hours):
 
Tides and Currents Weather Stations Pressure Air Temp Water Temp Dewpoint Dewpoint Depression Visibility Wind Speed Wind Dir Waves Ship Positions

Amistad (United States)

Ship's website: http://www.amistadvoyages.org/

Owner: AMISTAD AMERICA, New Haven, CT. More information available from US FCC via Universal Licensing System and Coast Guard Vessel Documentation Center.

Last reported at 2019-Apr-13 16:17 UTC. Time now 2019-Apr-26 04:18 UTC.
Position N 41°13' W 072°42'.
Warning: this ship's position is 12 days out of date.

Length 39 m; draft 3.4 m.

Type: Sailing vessel. MMSI: 369547000.

Date/timePositionNaut miles runAvg speedWind from/ knotsBaromVisibWave heightAir tempDewpointWater temp
2019-Apr-13 16:17N 41°13' W 072°42'2 7.4
2019-Apr-13 16:00N 41°14' W 072°39'4 7.2
2019-Apr-13 15:30N 41°13' W 072°34'4 7.0
2019-Apr-13 15:00N 41°14' W 072°30'3 6.8
2019-Apr-13 14:30N 41°15' W 072°25'3 6.2
2019-Apr-13 14:00N 41°15' W 072°21'3 5.3
2019-Apr-13 13:30N 41°14' W 072°18'3 5.3
2019-Apr-13 13:00N 41°15' W 072°14'2 4.9
2019-Apr-13 12:30N 41°15' W 072°11'2 4.5
2019-Apr-13 12:00N 41°15' W 072°08'3 5.3
2019-Apr-13 11:30N 41°17' W 072°06'3 6.0
2019-Apr-13 11:00N 41°20' W 072°05'1 2.9
2019-Apr-13 10:29N 41°21' W 072°06'0 0.0
2019-Apr-13 09:59N 41°21' W 072°06'0 0.0
2019-Apr-12 23:54N 41°21' W 072°06'0 0.0
2019-Apr-12 23:30N 41°21' W 072°06'0 0.0
2019-Apr-12 23:00N 41°21' W 072°06'0 0.0
2019-Apr-12 22:30N 41°21' W 072°06'0 0.0
2019-Apr-12 22:00N 41°21' W 072°06'  
2019-Apr-05 00:36N 41°22' W 072°06'0 0.0
2019-Apr-05 00:30N 41°22' W 072°06'0 0.0
2019-Apr-05 00:00N 41°22' W 072°06'0 0.0
2019-Apr-04 23:30N 41°22' W 072°06'0 0.0
2019-Apr-04 23:00N 41°22' W 072°06'0 0.0
2019-Apr-04 22:30N 41°22' W 072°06'0 0.0
2019-Apr-04 22:00N 41°22' W 072°06'0 0.0
2019-Apr-04 21:30N 41°22' W 072°06'0 0.0
2019-Apr-04 21:00N 41°22' W 072°06'0 0.0
2019-Apr-04 20:30N 41°22' W 072°06'0 0.0
2019-Apr-04 20:00N 41°22' W 072°06'0 0.0
2019-Apr-04 19:30N 41°22' W 072°06'0 0.0
2019-Apr-04 19:00N 41°22' W 072°06'0 0.0
2019-Apr-04 18:30N 41°22' W 072°06'0 0.0
2019-Apr-04 18:00N 41°22' W 072°06'0 0.0
2019-Apr-04 17:30N 41°22' W 072°06'0 0.0
2019-Apr-04 17:00N 41°22' W 072°06'0 0.0
2019-Apr-04 16:30N 41°22' W 072°06'0 0.0
2019-Apr-04 16:00N 41°22' W 072°06'1 2.2
2019-Apr-04 15:30N 41°21' W 072°05'3 5.8
2019-Apr-04 15:00N 41°18' W 072°05'2 4.6
2019-Apr-04 14:30N 41°18' W 072°02'2 4.7
2019-Apr-04 14:00N 41°19' W 071°59'2 3.7
2019-Apr-04 13:30N 41°21' W 071°58'1 1.7
2019-Apr-04 12:49N 41°22' W 071°58'0 0.0
2019-Apr-04 12:28N 41°22' W 071°58'0 0.0
2019-Apr-04 11:58N 41°22' W 071°58'0 0.0
2019-Apr-04 11:16N 41°22' W 071°58'0 0.0
2019-Apr-04 10:58N 41°22' W 071°58'0 0.0
2019-Apr-04 10:28N 41°22' W 071°58'0 0.0
2019-Apr-04 09:58N 41°22' W 071°58'0 0.0
2019-Apr-04 09:22N 41°22' W 071°58'0 0.0
2019-Apr-04 08:58N 41°22' W 071°58'0 0.0
2019-Apr-04 08:28N 41°22' W 071°58'0 0.0
2019-Apr-04 07:58N 41°22' W 071°58'0 0.0
2019-Apr-04 07:28N 41°22' W 071°58'0 0.0
2019-Apr-04 06:58N 41°22' W 071°58'0 0.0
2019-Apr-04 06:28N 41°22' W 071°58'0 0.0
2019-Apr-04 05:58N 41°22' W 071°58'0 0.0
2019-Apr-04 05:28N 41°22' W 071°58'0 0.0
2019-Apr-04 04:58N 41°22' W 071°58'0 0.0
2019-Apr-04 04:25N 41°22' W 071°58'0 0.0
2019-Apr-04 03:58N 41°22' W 071°58'0 0.0
2019-Apr-04 03:25N 41°22' W 071°58'0 0.0
2019-Apr-04 02:58N 41°22' W 071°58'0 0.0
2019-Apr-04 02:28N 41°22' W 071°58'0 0.0
2019-Apr-04 01:58N 41°22' W 071°58'0 0.0
2019-Apr-04 01:28N 41°22' W 071°58'0 0.0
2019-Apr-04 00:55N 41°22' W 071°58'0 0.0
2019-Apr-04 00:28N 41°22' W 071°58'0 0.0
2019-Apr-03 23:58N 41°22' W 071°58'0 0.0
2019-Apr-03 23:28N 41°22' W 071°58'0 0.0
2019-Apr-03 22:58N 41°22' W 071°58'0 0.0
2019-Apr-03 22:25N 41°22' W 071°58'0 0.0
2019-Apr-03 21:58N 41°22' W 071°58'0 0.0
2019-Apr-03 21:28N 41°22' W 071°58'0 0.0
2019-Apr-03 20:55N 41°22' W 071°58'0 0.0
2019-Apr-03 20:28N 41°22' W 071°58'0 0.0
2019-Apr-03 19:25N 41°22' W 071°58'0 0.0
2019-Apr-03 18:58N 41°22' W 071°58'0 0.0
2019-Apr-03 18:16N 41°22' W 071°58'  

Dump ship's entire track history